Latest Weather Observations for Cairns Racecourse

IDQ60801

Issued at 4:02 pm EST Wednesday 24 May 2017 (issued every 30 minutes, with the page automatically refreshed every 10 minutes)

About weather observations | Map of weather stations | Latest weather observations for QLD | Other Formats
Station Details ID: 031222 Name: CAIRNS RACECOURSE Lat: -16.95 Lon: 145.75 Height: 4.1 m
Data from the previous 72 hours. | See also: Recent months at Cairns Racecourse
Date/Time
EST
Temp
°C
App
Temp
°C
Dew
Point
°C
Rel
Hum
%
Delta-T
°C
Wind Press
QNH
hPa
Press
MSL
hPa
Rain since
9am
mm
Dir  Spd
km/h
Gust
km/h
Spd
kts
Gust
kts
24/04:00pm 24.9 23.0 16.6 60 5.1 ESE 22 35 12 19 - - 0.2
24/03:30pm 26.3 26.7 19.9 68 4.2 SSE 17 28 9 15 - - 0.2
24/03:00pm 26.0 26.4 20.6 72 3.5 S 19 28 10 15 - - 0.2
24/02:30pm 24.8 25.0 20.1 75 3.0 SSE 19 28 10 15 - - 0.2
24/02:00pm 25.7 25.6 20.0 71 3.7 SSE 20 30 11 16 - - 0.2
24/01:30pm 25.8 25.8 19.0 66 4.4 SSE 17 26 9 14 - - 0.2
24/01:00pm 25.4 24.9 19.1 68 4.0 SSE 20 32 11 17 - - 0.2
24/12:30pm 27.0 26.7 19.6 64 4.8 SE 20 28 11 15 - - 0.2
24/12:00pm 27.7 27.3 19.0 59 5.6 ESE 19 32 10 17 - - 0.2
24/11:30am 27.7 28.6 20.0 63 5.0 ESE 15 22 8 12 - - 0.2
24/11:00am 27.3 28.2 20.1 64 4.7 SSE 15 24 8 13 - - 0.2
24/10:30am 26.9 28.6 21.0 70 3.9 SE 13 22 7 12 - - 0.0
24/10:00am 24.6 27.4 21.5 83 2.1 SE 9 13 5 7 - - 0.0
24/09:30am 23.2 24.5 20.2 83 1.9 E 13 20 7 11 - - 0.0
24/09:00am 24.2 26.7 21.7 86 1.7 SSW 11 15 6 8 - - 11.0
24/08:30am 23.0 25.6 20.5 86 1.6 SSW 7 11 4 6 - - 11.0
24/08:00am 22.8 24.4 20.7 88 1.4 SSE 13 22 7 12 - - 11.0
24/07:30am 22.5 25.5 21.3 93 0.8 SW 7 11 4 6 - - 11.0
24/07:00am 21.7 25.0 20.7 94 0.6 SSE 4 11 2 6 - - 10.8
24/06:30am 22.0 24.1 20.1 89 1.2 SSE 9 17 5 9 - - 10.8
24/06:00am 22.4 24.7 20.7 90 1.1 S 9 15 5 8 - - 10.4
24/05:30am 21.8 24.7 20.6 93 0.8 SSW 6 11 3 6 - - 10.4
24/05:00am 21.8 24.7 21.0 95 0.5 SSW 7 13 4 7 - - 10.4
24/04:30am 21.9 24.4 21.1 95 0.5 SE 9 17 5 9 - - 7.4
24/04:00am 21.9 24.0 20.9 94 0.7 S 11 15 6 8 - - 3.6
24/03:30am 22.2 23.8 20.7 91 1.0 ESE 13 19 7 10 - - 0.8
24/03:00am 22.4 23.3 20.9 91 1.0 SSW 17 24 9 13 - - 0.0
24/02:30am 22.8 24.6 21.1 90 1.1 S 13 20 7 11 - - 0.0
24/02:00am 22.7 24.0 20.8 89 1.2 SSE 15 20 8 11 - - 0.0
24/01:30am 23.2 25.4 21.1 88 1.4 SSE 11 20 6 11 - - 0.0
24/01:00am 23.7 25.8 21.0 85 1.8 S 11 17 6 9 - - 0.0
24/12:30am 23.6 25.5 21.3 87 1.5 S 13 19 7 10 - - 0.0
24/12:00am 23.4 25.7 21.3 88 1.4 S 11 17 6 9 - - 0.0
 
Date/Time
EST
Temp
°C
App
Temp
°C
Dew
Point
°C
Rel
Hum
%
Delta-T
°C
Wind Press
QNH
hPa
Press
MSL
hPa
Rain since
9am
mm
Dir  Spd
km/h
Gust
km/h
Spd
kts
Gust
kts
23/11:30pm 23.7 26.4 21.4 87 1.5 SSE 9 17 5 9 - - 0.0
23/11:00pm 23.7 24.9 21.4 87 1.5 SSE 17 26 9 14 - - 0.0
23/10:30pm 23.6 25.6 21.5 88 1.4 S 13 20 7 11 - - 0.0
23/10:00pm 23.8 25.5 21.7 88 1.4 S 15 24 8 13 - - 0.0
23/09:30pm 23.8 25.8 21.5 87 1.5 S 13 20 7 11 - - 0.0
23/09:00pm 23.7 25.4 21.6 88 1.4 S 15 20 8 11 - - 0.0
23/08:30pm 24.1 26.5 21.6 86 1.7 SSE 11 20 6 11 - - 0.0
23/08:00pm 23.9 25.8 21.4 86 1.6 S 13 19 7 10 - - 0.0
23/07:30pm 24.4 26.9 21.1 82 2.2 SSE 9 19 5 10 - - 0.0
23/07:00pm 24.4 26.2 21.1 82 2.2 S 13 20 7 11 - - 0.0
23/06:30pm 25.0 26.0 21.1 79 2.6 SSE 17 28 9 15 - - 0.0
23/06:00pm 25.6 28.0 21.5 78 2.7 SSE 11 17 6 9 - - 0.0
23/05:30pm 25.9 28.2 21.3 76 3.0 SE 11 17 6 9 - - 0.0
23/05:00pm 26.1 26.6 21.1 74 3.3 ESE 20 26 11 14 - - 0.0
23/04:30pm 27.0 28.0 21.1 70 3.9 ESE 17 26 9 14 - - 0.0
23/04:00pm 28.1 29.8 20.9 65 4.8 ESE 13 20 7 11 - - 0.0
23/03:30pm 28.2 28.9 20.5 63 5.1 ESE 17 26 9 14 - - 0.0
23/03:00pm 28.6 29.0 20.6 62 5.3 E 19 28 10 15 - - 0.0
23/02:30pm 29.0 30.6 21.5 64 5.0 ESE 15 24 8 13 - - 0.0
23/02:00pm 29.2 30.0 20.6 59 5.7 ESE 17 28 9 15 - - 0.0
23/01:30pm 28.7 28.9 20.2 60 5.6 E 19 26 10 14 - - 0.0
23/01:00pm 28.6 28.9 20.3 60 5.5 ESE 19 26 10 14 - - 0.0
23/12:30pm 28.7 29.1 19.9 59 5.8 ESE 17 24 9 13 - - 0.0
23/12:00pm 28.2 28.7 20.0 61 5.4 ESE 17 26 9 14 - - 0.0
23/11:30am 27.9 29.2 20.2 63 5.0 SE 13 20 7 11 - - 0.0
23/11:00am 27.8 28.7 20.1 63 5.0 SE 15 22 8 12 - - 0.0
23/10:30am 27.0 27.8 20.6 68 4.2 SSE 17 28 9 15 - - 0.0
23/10:00am 26.3 27.2 20.8 71 3.6 SSE 17 28 9 15 - - 0.0
23/09:30am 25.5 25.6 19.9 71 3.6 S 19 26 10 14 - - 0.0
23/09:00am 26.1 27.2 20.4 71 3.7 SSE 15 24 8 13 - - 0.0
23/08:30am 25.1 26.9 20.4 75 3.1 SSE 11 19 6 10 - - 0.0
23/08:00am 24.7 27.1 20.8 79 2.6 SE 9 15 5 8 - - 0.0
23/07:30am 23.4 25.4 20.0 81 2.2 SSE 9 13 5 7 - - 0.0
23/07:00am 22.7 24.8 20.2 86 1.6 S 9 13 5 7 - - 0.0
23/06:30am 22.1 24.0 19.8 87 1.5 S 9 13 5 7 - - 0.0
23/06:00am 22.3 24.3 20.0 87 1.5 S 9 13 5 7 - - 0.0
23/05:30am 21.8 23.6 19.5 87 1.5 SSW 9 15 5 8 - - 0.0
23/05:00am 21.7 23.6 19.8 89 1.2 SSW 9 13 5 7 - - 0.0
23/04:30am 21.6 23.7 19.3 87 1.5 S 7 13 4 7 - - 0.0
23/04:00am 22.1 23.5 19.6 86 1.6 S 11 17 6 9 - - 0.0
23/03:30am 21.9 23.7 19.6 87 1.5 S 9 13 5 7 - - 0.0
23/03:00am 20.9 22.7 18.7 87 1.4 SSW 7 11 4 6 - - 0.0
23/02:30am 20.5 23.0 18.1 86 1.5 S 2 7 1 4 - - 0.0
23/02:00am 21.3 23.7 18.7 85 1.6 S 4 7 2 4 - - 0.0
23/01:30am 21.6 23.5 19.0 85 1.6 S 7 13 4 7 - - 0.0
23/01:00am 21.0 22.9 18.9 88 1.3 S 7 11 4 6 - - 0.0
23/12:30am 21.0 24.1 18.6 86 1.5 CALM 0 6 0 3 - - 0.0
23/12:00am 21.2 22.9 18.4 84 1.7 SE 7 9 4 5 - - 0.0
 
Date/Time
EST
Temp
°C
App
Temp
°C
Dew
Point
°C
Rel
Hum
%
Delta-T
°C
Wind Press
QNH
hPa
Press
MSL
hPa
Rain since
9am
mm
Dir  Spd
km/h
Gust
km/h
Spd
kts
Gust
kts
22/11:30pm 21.7 23.6 18.5 82 2.0 SSE 6 9 3 5 - - 0.0
22/11:00pm 21.4 22.8 18.6 84 1.8 S 9 13 5 7 - - 0.0
22/10:30pm 21.1 23.0 18.5 85 1.6 SSW 6 11 3 6 - - 0.0
22/10:00pm 21.0 22.4 18.6 86 1.5 SW 9 9 5 5 - - 0.0
22/09:30pm 21.0 22.8 18.4 85 1.6 SSW 6 9 3 5 - - 0.0
22/09:00pm 21.6 23.4 18.8 84 1.8 S 7 11 4 6 - - 0.0
22/08:30pm 21.6 23.4 18.8 84 1.8 SSW 7 11 4 6 - - 0.0
22/08:00pm 22.1 24.0 18.9 82 2.0 S 7 13 4 7 - - 0.0
22/07:30pm 22.3 24.2 18.9 81 2.1 S 7 11 4 6 - - 0.0
22/07:00pm 22.1 24.8 18.7 81 2.1 SSE 2 7 1 4 - - 0.0
22/06:30pm 23.0 25.0 18.7 77 2.7 SE 6 11 3 6 - - 0.0
22/06:00pm 23.5 25.4 19.0 76 2.9 SSE 7 11 4 6 - - 0.0
22/05:30pm 24.3 25.5 19.1 73 3.3 SE 11 17 6 9 - - 0.0
22/05:00pm 25.1 25.6 19.2 70 3.8 ESE 15 22 8 12 - - 0.0
22/04:30pm 25.6 25.2 18.8 66 4.3 ESE 19 30 10 16 - - 0.0
22/04:00pm 26.2 25.7 19.1 65 4.6 E 20 32 11 17 - - 0.0
22/03:30pm 26.8 26.6 19.7 65 4.6 ESE 20 32 11 17 - - 0.0
22/03:00pm 27.0 26.8 19.4 63 4.9 ESE 19 28 10 15 - - 0.0
22/02:30pm 27.2 26.7 19.0 61 5.3 ESE 20 30 11 16 - - 0.0
22/02:00pm 27.5 27.4 19.6 62 5.1 ESE 19 30 10 16 - - 0.0
22/01:30pm 27.5 27.4 19.6 62 5.1 E 19 26 10 14 - - 0.0
22/01:00pm 27.8 28.0 20.1 63 5.0 ESE 19 30 10 16 - - 0.0
22/12:30pm 28.4 29.3 19.3 57 5.9 SE 13 22 7 12 - - 0.0
22/12:00pm 27.6 27.4 19.4 61 5.3 SE 19 30 10 16 - - 0.0
22/11:30am 27.6 26.9 18.3 57 5.9 SSE 19 28 10 15 - - 0.0
22/11:00am 27.3 26.6 18.6 59 5.6 SSE 20 32 11 17 - - 0.0
22/10:30am 27.0 26.4 18.8 60 5.3 SSE 20 32 11 17 - - 0.0
22/10:00am 26.2 26.2 20.1 69 4.0 SSE 20 32 11 17 - - 0.0
22/09:30am 25.6 25.5 19.5 69 3.9 SSE 19 28 10 15 - - 0.0
22/09:00am 25.1 25.1 19.0 69 3.9 SSE 17 26 9 14 - - 0.0
22/08:30am 24.6 25.4 19.0 71 3.6 SSE 13 19 7 10 - - 0.0
22/08:00am 23.7 26.3 19.2 76 2.9 ESE 4 9 2 5 - - 0.0
22/07:30am 20.9 24.0 18.7 87 1.4 CALM 0 0 0 0 - - 0.0
22/07:00am 20.3 23.2 18.2 88 1.3 CALM 0 6 0 3 - - 0.0
22/06:30am 20.5 22.1 18.3 87 1.4 SSE 7 11 4 6 - - 0.0
22/06:00am 20.4 21.9 18.0 86 1.5 SE 7 11 4 6 - - 0.0
22/05:30am 20.5 21.6 17.9 85 1.6 SSW 9 11 5 6 - - 0.0
22/05:00am 20.7 21.8 18.1 85 1.6 S 9 15 5 8 - - 0.0
22/04:30am 20.5 21.9 17.9 85 1.6 S 7 13 4 7 - - 0.0
22/04:00am 20.5 22.1 17.9 85 1.6 S 6 9 3 5 - - 0.0
22/03:30am 20.9 22.0 17.9 83 1.9 S 9 15 5 8 - - 0.0
22/03:00am 21.5 22.6 18.1 81 2.1 SSE 9 15 5 8 - - 0.0
22/02:30am 21.7 22.5 18.1 80 2.2 SSW 11 17 6 9 - - 0.0
22/02:00am 22.0 22.6 18.6 81 2.1 S 13 19 7 10 - - 0.0
22/01:30am 21.6 22.7 18.8 84 1.8 S 11 17 6 9 - - 0.0
22/01:00am 21.8 23.3 19.0 84 1.8 S 9 13 5 7 - - 0.0
22/12:30am 22.0 23.5 19.0 83 1.9 S 9 13 5 7 - - 0.0
22/12:00am 22.4 23.7 19.4 83 1.9 SSW 11 17 6 9 - - 0.0
 
Date/Time
EST
Temp
°C
App
Temp
°C
Dew
Point
°C
Rel
Hum
%
Delta-T
°C
Wind Press
QNH
hPa
Press
MSL
hPa
Rain since
9am
mm
Dir  Spd
km/h
Gust
km/h
Spd
kts
Gust
kts
21/11:30pm 22.1 23.5 19.5 85 1.7 SSW 11 13 6 7 - - 0.0
21/11:00pm 22.4 24.4 19.9 86 1.6 SSW 9 13 5 7 - - 0.0
21/10:30pm 22.2 23.7 19.7 86 1.6 SSW 11 15 6 8 - - 0.0
21/10:00pm 22.5 23.4 20.0 86 1.6 S 15 20 8 11 - - 0.0
21/09:30pm 22.9 24.2 20.1 84 1.8 S 13 20 7 11 - - 0.0
21/09:00pm 22.6 23.9 20.1 86 1.6 S 13 20 7 11 - - 0.0
21/08:30pm 23.0 24.3 20.1 84 1.9 SSE 13 20 7 11 - - 0.0
21/08:00pm 23.1 24.4 20.1 83 1.9 SSE 13 19 7 10 - - 0.0
21/07:30pm 22.7 25.5 19.7 83 1.9 SSE 4 9 2 5 - - 0.0
21/07:00pm 23.4 26.0 20.0 81 2.2 SE 6 9 3 5 - - 0.0
21/06:30pm 23.5 26.4 19.8 80 2.4 SE 4 9 2 5 - - 0.0
21/06:00pm 24.1 26.4 19.8 77 2.8 SE 7 11 4 6 - - 0.0
21/05:30pm 24.8 25.9 19.6 73 3.3 SE 13 20 7 11 - - 0.0
21/05:00pm 25.4 25.8 19.1 68 4.0 ESE 15 20 8 11 - - 0.0
21/04:30pm 25.7 26.3 20.3 72 3.5 ESE 17 28 9 15 - - 0.0

Other Formats:

Comma delimited format used in spreadsheet applications
http://www.bom.gov.au/fwo/IDQ60801/IDQ60801.94288.axf

JavaScript Object Notation format (JSON) in row-major order
http://www.bom.gov.au/fwo/IDQ60801/IDQ60801.94288.json